Warrenton, GA (30828)

1:24 PM EDT on August 30, 2014 (GMT -0400)
Deerlick Astronomy Village | Change Station
CLOSE
Current Station
Personal Weather Station
Location: Sharon, GA
Elevation: 558 ft
Nearby Weather Stations

Elev 558 ft 33.56 °N, 82.76 °W | Updated 3 minutes ago

Overcast
Overcast
88.1 °F
Feels Like 96 °F
N
6.0
Wind Variable Wind from SSE
Gusts 6.0 mph

Today
High -- | Low -- °F
--% Chance of Precip.
Yesterday
High -- | Low -- °F
Precip. -- in
7:03 AM 7:58 PM
Waxing Crescent, 23% visible
Pressure 30.20 in
Visibility 10.0 miles
Clouds Scattered Clouds 4000 ft
Scattered Clouds 5000 ft
Mostly Cloudy 6500 ft
Heat Index 96 °F
Dew Point 73 °F
Humidity 62%
Rainfall 0.00 in
Snow Depth Not available.
UV 6 out of 12
Pollen 8.90 out of 12
Air Quality Not available.
Flu Activity Not available.
METAR KHQU 301715Z AUTO 06005KT 10SM SCT040 SCT050 BKN065 33/26 A3020 RMK AO1 T03280257

More Conditions Fewer Conditions

Pressure 30.20 in
Visibility 10.0 miles
Clouds Scattered Clouds 4000 ft
Scattered Clouds 5000 ft
Mostly Cloudy 6500 ft
Heat Index 96 °F
Dew Point 73 °F
Humidity 62%
Rainfall 0.00 in
Snow Depth Not available.
UV 6 out of 12
Pollen 8.90 out of 12
Air Quality Not available.
Flu Activity Not available.
METAR KHQU 301715Z AUTO 06005KT 10SM SCT040 SCT050 BKN065 33/26 A3020 RMK AO1 T03280257

More Conditions Fewer Conditions

10-Day Weather Forecast

Almanac

Astronomy

Aug. 30, 2014 Rise Set
Actual Time 7:03 AM EDT 7:58 PM EDT
Civil Twilight 6:38 AM EDT 8:23 PM EDT
Nautical Twilight 6:07 AM EDT 8:53 PM EDT
Astronomical Twilight 5:36 AM EDT 9:24 PM EDT
Moon 11:33 AM EDT 10:48 PM EDT
Length of Visible Light 13h 45m
Length of Day
12h 55m
Tomorrow will be 1m 59s shorter.
Waxing Crescent, 23% of the Moon is Illuminated
Today
Waxing Crescent
Sep 2
First Quarter
Sep 8
Full
Sep 15
Last Quarter
Sep 24
New

Today's Extremes

State Highs State Lows

Community

WunderPhotos

Upload Photos

1,748,578 photos uploaded!

WunderBlogs® & News

Nearby

Snow Depth

Station Depth Elevation
No new snow has been reported.

Earthquake Activity

City Distance Mag. Time & Date
No recent earthquake activity has been reported nearby.
Minimum magnitude displayed is 2.5.

Coastal Water Temperatures

Place Temperature
No Stations Reporting

Nearby Weather Stations